createdAt,value
2022-11-23T00:01:39.216Z,99983.75
2022-11-23T00:04:11.109Z,99981.97
2022-11-23T00:06:39.181Z,99981.88
2022-11-23T00:09:07.764Z,100004.41
2022-11-23T00:11:38.906Z,100001.72
2022-11-23T00:14:07.091Z,100001.69
2022-11-23T00:16:35.211Z,100020.84
2022-11-23T00:19:05.053Z,100036.59
2022-11-23T00:21:34.161Z,100050.72
2022-11-23T00:24:02.231Z,100050.59
2022-11-23T00:26:30.323Z,100058.78
2022-11-23T00:28:58.325Z,100053.53
2022-11-23T00:31:26.459Z,100019.28
2022-11-23T00:33:56.570Z,100069.94
2022-11-23T00:36:26.577Z,100087.31
2022-11-23T00:38:58.575Z,100092.97
2022-11-23T00:41:32.416Z,100107.03
2022-11-23T00:44:00.403Z,100094.34
2022-11-23T00:46:29.464Z,100102.56
2022-11-23T00:48:58.842Z,100101.50
2022-11-23T00:51:32.789Z,100109.00
2022-11-23T00:54:02.311Z,100122.34
2022-11-23T00:56:32.653Z,100128.06
2022-11-23T00:59:02.775Z,100126.25
2022-11-23T01:01:34.708Z,100135.25
2022-11-23T01:04:04.953Z,100138.28
2022-11-23T01:06:35.804Z,100150.13
2022-11-23T01:09:10.068Z,100150.03
2022-11-23T01:11:38.073Z,100088.72
2022-11-23T01:14:07.369Z,100164.78
2022-11-23T01:16:38.911Z,100166.31
2022-11-23T01:19:13.883Z,100118.47
2022-11-23T01:21:42.038Z,100186.19
2022-11-23T01:24:15.263Z,100191.09
2022-11-23T01:26:47.231Z,100195.22
2022-11-23T01:29:15.356Z,100206.09
2022-11-23T01:31:46.719Z,100206.03
2022-11-23T01:34:16.418Z,100218.72
2022-11-23T01:36:45.158Z,100228.78
2022-11-23T01:39:13.939Z,100227.91
2022-11-23T01:41:45.135Z,100222.03
2022-11-23T01:44:32.181Z,100227.84
2022-11-23T01:47:07.128Z,100241.13
2022-11-23T01:49:44.203Z,100238.56
2022-11-23T01:52:20.236Z,100270.00
2022-11-23T01:55:05.341Z,100254.69
2022-11-23T01:57:42.811Z,100256.97
2022-11-23T02:00:11.858Z,100269.22
2022-11-23T02:02:47.154Z,100274.84
2022-11-23T02:05:17.317Z,100275.69
2022-11-23T02:07:46.280Z,100282.28
2022-11-23T02:10:14.375Z,100289.72
2022-11-23T02:12:42.535Z,100295.50
2022-11-23T02:15:10.933Z,100304.66
2022-11-23T02:17:38.597Z,100313.72
2022-11-23T02:20:13.157Z,100317.66
2022-11-23T02:23:05.373Z,100326.63
2022-11-23T02:25:49.262Z,100329.06
2022-11-23T02:28:22.439Z,100345.72
2022-11-23T02:30:53.895Z,100353.03
2022-11-23T02:33:22.416Z,100340.13
2022-11-23T02:35:51.726Z,100351.88
2022-11-23T02:38:21.152Z,100368.53
2022-11-23T02:40:49.688Z,100362.47
2022-11-23T02:43:17.965Z,100390.91
2022-11-23T02:45:58.116Z,100405.06
2022-11-23T02:48:26.949Z,100400.97
2022-11-23T02:50:54.894Z,100390.84
2022-11-23T02:53:23.850Z,100416.53
2022-11-23T02:55:51.826Z,100424.78
2022-11-23T02:58:19.829Z,100360.97
2022-11-23T03:00:47.996Z,100421.63
2022-11-23T03:03:16.088Z,100435.75
2022-11-23T03:05:44.050Z,100385.56
2022-11-23T03:08:12.234Z,100429.78
2022-11-23T03:10:40.155Z,100431.28
2022-11-23T03:13:08.169Z,100449.81
2022-11-23T03:15:37.224Z,100452.34
2022-11-23T03:18:05.234Z,100450.84
2022-11-23T03:20:33.504Z,100415.72
2022-11-23T03:23:01.651Z,100432.75
2022-11-23T03:25:29.939Z,100464.06
2022-11-23T03:27:58.003Z,100449.03
2022-11-23T03:30:27.215Z,100464.94
2022-11-23T03:32:55.299Z,100461.69
2022-11-23T03:35:23.430Z,100471.69
2022-11-23T03:37:53.071Z,100487.63
2022-11-23T03:40:21.097Z,100489.97
2022-11-23T03:42:49.074Z,100489.97
2022-11-23T03:45:18.327Z,100488.31
2022-11-23T03:47:46.327Z,100499.31
2022-11-23T03:50:14.326Z,100516.06
2022-11-23T03:52:42.381Z,100500.19
2022-11-23T03:55:10.885Z,100520.28
2022-11-23T03:57:38.897Z,100522.78
2022-11-23T04:00:07.866Z,100518.53
2022-11-23T04:02:36.239Z,100534.16
2022-11-23T04:05:04.039Z,100539.16
2022-11-23T04:07:32.229Z,100537.44
2022-11-23T04:10:00.411Z,100539.41
2022-11-23T04:12:28.479Z,100567.16
2022-11-23T04:14:57.550Z,100565.50
2022-11-23T04:17:25.569Z,100580.41
2022-11-23T04:19:55.343Z,100571.06
2022-11-23T04:22:23.469Z,100569.59
2022-11-23T04:24:51.450Z,100556.09
2022-11-23T04:27:19.515Z,100569.44
2022-11-23T04:29:47.727Z,100515.34
2022-11-23T04:32:15.746Z,100571.25
2022-11-23T04:34:43.704Z,100594.09
2022-11-23T04:37:13.879Z,100581.44
2022-11-23T04:39:41.941Z,100592.34
2022-11-23T04:42:13.923Z,100602.28
2022-11-23T04:44:42.068Z,100615.63
2022-11-23T04:47:11.875Z,100608.19
2022-11-23T04:49:39.958Z,100612.38
2022-11-23T04:52:10.993Z,100627.25
2022-11-23T04:54:39.009Z,100635.66
2022-11-23T04:57:07.161Z,100623.28
2022-11-23T04:59:37.235Z,100626.41
2022-11-23T05:02:05.270Z,100634.97
2022-11-23T05:04:35.266Z,100641.22
2022-11-23T05:07:03.505Z,100658.69
2022-11-23T05:09:31.676Z,100672.22
2022-11-23T05:11:59.750Z,100664.97
2022-11-23T05:14:27.895Z,100666.72
2022-11-23T05:16:55.956Z,100669.41
2022-11-23T05:19:25.528Z,100597.06
2022-11-23T05:21:53.892Z,100660.13
2022-11-23T05:24:21.849Z,100688.25
2022-11-23T05:26:54.798Z,100700.00
2022-11-23T05:29:25.956Z,100701.78
2022-11-23T05:31:54.848Z,100709.38
2022-11-23T05:35:03.203Z,100706.72
2022-11-23T08:35:07.516Z,101020.28
2022-11-23T08:37:35.737Z,101021.91
2022-11-23T08:40:03.471Z,101031.19
2022-11-23T08:42:31.486Z,101032.91
2022-11-23T08:45:00.707Z,101053.53
2022-11-23T08:47:28.713Z,101054.63
2022-11-23T08:49:58.217Z,101056.41
2022-11-23T08:52:26.813Z,101071.56
2022-11-23T08:54:54.867Z,101086.59
2022-11-23T08:57:23.059Z,101080.81
2022-11-23T08:59:51.108Z,101087.38
2022-11-23T09:02:18.799Z,101085.56
2022-11-23T09:04:48.582Z,101085.91
2022-11-23T09:07:16.638Z,101102.91
2022-11-23T09:09:44.273Z,101101.97
2022-11-23T09:12:14.122Z,101113.72
2022-11-23T09:14:42.259Z,101123.69
2022-11-23T09:17:10.249Z,101121.03
2022-11-23T09:19:38.028Z,101126.72
2022-11-23T09:22:06.089Z,101133.28
2022-11-23T09:24:34.353Z,101146.44
2022-11-23T09:27:07.109Z,101142.38
2022-11-23T09:29:35.224Z,101148.22
2022-11-23T09:32:03.622Z,101150.00
2022-11-23T09:34:33.449Z,101140.81
2022-11-23T09:37:01.878Z,101153.97
2022-11-23T09:39:29.672Z,101163.09
2022-11-23T09:42:17.766Z,101169.34
2022-11-23T09:44:52.878Z,101183.44
2022-11-23T09:47:26.425Z,101194.25
2022-11-23T09:50:15.744Z,101193.22
2022-11-23T09:52:47.770Z,101196.56
2022-11-23T09:55:28.794Z,101190.16
2022-11-23T09:58:03.306Z,101202.00
2022-11-23T10:00:39.926Z,101219.28
2022-11-23T10:03:12.838Z,101214.97
2022-11-23T10:05:40.995Z,101221.44
2022-11-23T10:08:27.156Z,101228.47
2022-11-23T10:11:27.745Z,101248.56
2022-11-23T10:13:55.910Z,101238.53
2022-11-23T10:16:55.048Z,101249.19
2022-11-23T10:19:41.731Z,101264.03
2022-11-23T10:22:32.370Z,101278.88
2022-11-23T10:25:11.076Z,101258.34
2022-11-23T10:27:39.276Z,101292.88
2022-11-23T10:30:16.374Z,101293.66
2022-11-23T10:33:22.884Z,101294.13
2022-11-23T10:35:50.896Z,101287.09
2022-11-23T10:38:21.555Z,101297.28
2022-11-23T10:41:15.260Z,101305.88
2022-11-23T10:44:00.090Z,101311.63
2022-11-23T10:46:39.037Z,101323.13
2022-11-23T10:49:21.989Z,101343.56
2022-11-23T10:51:57.097Z,101341.75
2022-11-23T10:54:36.362Z,101343.00
2022-11-23T10:57:37.208Z,101341.97
2022-11-23T11:00:17.421Z,101346.72
2022-11-23T11:02:55.246Z,101352.28
2022-11-23T11:08:33.233Z,101370.38
2022-11-23T11:11:22.275Z,101374.94
2022-11-23T11:13:50.452Z,101374.09
2022-11-23T11:16:34.655Z,101376.47
2022-11-23T11:19:23.738Z,101374.75
2022-11-23T11:21:51.668Z,101382.91
2022-11-23T11:24:24.697Z,101396.00
2022-11-23T11:27:04.089Z,101390.94
2022-11-23T11:29:41.166Z,101402.63
2022-11-23T11:32:19.917Z,101403.28
2022-11-23T11:35:03.122Z,101406.44
2022-11-23T11:37:50.587Z,101415.53
2022-11-23T11:40:33.334Z,101417.94
2022-11-23T11:43:18.091Z,101416.22
2022-11-23T11:46:21.249Z,101426.16
2022-11-23T11:48:39.700Z,101429.31
2022-11-23T11:51:14.410Z,101424.91
2022-11-23T11:53:54.824Z,101443.19
2022-11-23T11:56:43.074Z,101440.59
2022-11-23T11:59:26.936Z,101453.72
2022-11-23T12:02:30.851Z,101463.47
2022-11-23T12:05:31.099Z,101461.06
2022-11-23T12:08:05.839Z,101468.53
2022-11-23T12:10:50.890Z,101476.66
2022-11-23T12:13:24.595Z,101470.63
2022-11-23T12:16:05.690Z,101479.53
2022-11-23T12:18:51.263Z,101480.28
2022-11-23T12:22:01.303Z,101494.16
2022-11-23T12:24:32.341Z,101499.69
2022-11-23T12:27:09.520Z,101495.25
2022-11-23T12:30:03.029Z,101511.81
2022-11-23T12:33:07.173Z,101512.00
2022-11-23T12:35:55.954Z,101514.66
2022-11-23T12:38:54.237Z,101527.56
2022-11-23T12:41:31.375Z,101525.75
2022-11-23T12:44:06.390Z,101528.25
2022-11-23T12:46:56.461Z,101536.38
2022-11-23T12:49:54.145Z,101538.75
2022-11-23T12:52:37.358Z,101555.88
2022-11-23T12:55:20.309Z,101561.41
2022-11-23T12:58:06.077Z,101564.84
2022-11-23T13:00:47.375Z,101583.03
2022-11-23T13:03:18.138Z,101576.03
2022-11-23T13:06:02.391Z,101501.88
2022-11-23T13:08:57.716Z,101591.69
2022-11-23T13:12:04.673Z,101587.06
2022-11-23T13:14:47.399Z,101583.78
2022-11-23T13:17:47.154Z,101598.44
2022-11-23T13:20:36.917Z,101596.50
2022-11-23T13:23:07.684Z,101532.25
2022-11-23T13:25:35.718Z,101602.78
2022-11-23T13:28:32.736Z,101602.47
2022-11-23T13:31:32.074Z,101591.47
2022-11-23T13:34:03.407Z,101607.84
2022-11-23T13:37:04.261Z,101607.84
2022-11-23T13:39:44.178Z,101611.19
2022-11-23T13:42:12.729Z,101607.13
2022-11-23T13:44:41.048Z,101616.94
2022-11-23T13:47:18.122Z,101634.09
2022-11-23T13:49:51.710Z,101634.66
2022-11-23T13:52:22.863Z,101632.50
2022-11-23T13:55:37.153Z,101631.97
2022-11-23T13:58:23.899Z,101646.34
2022-11-23T14:00:54.409Z,101656.75
2022-11-23T14:03:44.677Z,101663.88
2022-11-23T14:06:24.550Z,101661.28
2022-11-23T14:09:09.779Z,101675.97
2022-11-23T14:11:52.760Z,101675.50
2022-11-23T14:14:25.872Z,101672.69
2022-11-23T14:17:09.621Z,101675.16
2022-11-23T14:19:55.996Z,101680.66
2022-11-23T14:22:45.311Z,101688.88
2022-11-23T14:25:31.065Z,101691.25
2022-11-23T14:28:09.275Z,101674.72
2022-11-23T14:31:03.672Z,101698.88
2022-11-23T14:33:47.596Z,101702.66
2022-11-23T14:36:42.296Z,101701.69
2022-11-23T14:39:30.180Z,101713.13
2022-11-23T14:42:03.842Z,101727.13
2022-11-23T14:44:38.455Z,101744.50
2022-11-23T14:47:10.384Z,101730.47
2022-11-23T14:49:49.937Z,101734.56
2022-11-23T14:52:36.362Z,101749.22
2022-11-23T14:55:09.943Z,101744.03
2022-11-23T14:57:46.625Z,101758.94
2022-11-23T15:00:30.055Z,101760.53
2022-11-23T15:03:49.599Z,101756.22
2022-11-23T15:06:11.943Z,101759.34
2022-11-23T15:09:10.635Z,101764.94
2022-11-23T15:11:39.084Z,101764.72
2022-11-23T15:14:27.814Z,101774.53
2022-11-23T15:16:56.102Z,101787.91
2022-11-23T15:19:29.704Z,101780.34
2022-11-23T15:21:58.714Z,101808.38
2022-11-23T15:24:28.258Z,101798.00
2022-11-23T15:27:11.089Z,101809.31
2022-11-23T15:29:41.788Z,101816.75
2022-11-23T15:32:33.199Z,101805.25
2022-11-23T15:35:07.716Z,101821.00
2022-11-23T15:37:48.801Z,101820.78
